METAR Formatted Surface Weather Observation
Issued by NWS

Home | Current Version | Previous Version | Text Only | Print | Product List | Glossary On
Versions: 1 2 3 4 5 6 7 8 9 10 11 12 13 14 15 16 17 18 19 20 21
368
SAUS44 KLZK 211808
MTRMWT
SPECI KMWT 211807Z AUTO 14004KT 10SM BKN011 OVC014 22/20 A2999 RMK
AO2 CIG 005V012 T02220200



USA.gov is the U.S. government's official web portal to all federal, state and local government web resources and services.